sensor_id;sensor_type;location;lat;lon;timestamp;P1;durP1;ratioP1;P2;durP2;ratioP2
10705;SDS011;5404;42.656;23.336;2023-07-13T00:01:26;9.55;;;5.97;;
10705;SDS011;5404;42.656;23.336;2023-07-13T00:03:53;12.93;;;5.72;;
10705;SDS011;5404;42.656;23.336;2023-07-13T00:06:18;20.13;;;6.15;;
10705;SDS011;5404;42.656;23.336;2023-07-13T00:08:45;16.13;;;6.10;;
10705;SDS011;5404;42.656;23.336;2023-07-13T00:11:12;18.77;;;5.70;;
10705;SDS011;5404;42.656;23.336;2023-07-13T00:13:38;12.48;;;5.22;;
10705;SDS011;5404;42.656;23.336;2023-07-13T00:16:04;12.27;;;5.80;;
10705;SDS011;5404;42.656;23.336;2023-07-13T00:18:30;10.32;;;5.82;;
10705;SDS011;5404;42.656;23.336;2023-07-13T00:20:56;17.77;;;5.60;;
10705;SDS011;5404;42.656;23.336;2023-07-13T00:23:29;16.35;;;5.53;;
10705;SDS011;5404;42.656;23.336;2023-07-13T00:25:56;13.80;;;6.53;;
10705;SDS011;5404;42.656;23.336;2023-07-13T00:28:22;12.00;;;5.47;;
10705;SDS011;5404;42.656;23.336;2023-07-13T00:30:48;12.00;;;5.78;;
10705;SDS011;5404;42.656;23.336;2023-07-13T00:33:13;14.10;;;5.85;;
10705;SDS011;5404;42.656;23.336;2023-07-13T00:35:39;15.27;;;5.78;;
10705;SDS011;5404;42.656;23.336;2023-07-13T00:38:05;14.02;;;5.97;;
10705;SDS011;5404;42.656;23.336;2023-07-13T00:40:30;12.85;;;5.40;;
10705;SDS011;5404;42.656;23.336;2023-07-13T00:42:57;12.40;;;5.85;;
10705;SDS011;5404;42.656;23.336;2023-07-13T00:47:49;10.20;;;5.25;;
10705;SDS011;5404;42.656;23.336;2023-07-13T00:50:15;14.00;;;6.55;;
10705;SDS011;5404;42.656;23.336;2023-07-13T00:52:44;11.07;;;5.82;;
10705;SDS011;5404;42.656;23.336;2023-07-13T00:55:12;11.88;;;5.50;;
10705;SDS011;5404;42.656;23.336;2023-07-13T00:57:39;13.68;;;5.88;;
10705;SDS011;5404;42.656;23.336;2023-07-13T01:00:06;13.75;;;5.45;;
10705;SDS011;5404;42.656;23.336;2023-07-13T01:02:34;16.15;;;5.28;;
10705;SDS011;5404;42.656;23.336;2023-07-13T01:05:08;10.15;;;5.55;;
10705;SDS011;5404;42.656;23.336;2023-07-13T01:07:39;11.02;;;6.47;;
10705;SDS011;5404;42.656;23.336;2023-07-13T01:10:06;12.30;;;6.38;;
10705;SDS011;5404;42.656;23.336;2023-07-13T01:12:32;13.75;;;5.63;;
10705;SDS011;5404;42.656;23.336;2023-07-13T01:14:58;14.32;;;5.40;;
10705;SDS011;5404;42.656;23.336;2023-07-13T01:17:25;14.65;;;6.57;;
10705;SDS011;5404;42.656;23.336;2023-07-13T01:19:53;10.63;;;5.90;;
10705;SDS011;5404;42.656;23.336;2023-07-13T01:22:19;11.93;;;6.38;;
10705;SDS011;5404;42.656;23.336;2023-07-13T01:24:51;10.15;;;5.75;;
10705;SDS011;5404;42.656;23.336;2023-07-13T01:27:22;12.93;;;6.13;;
10705;SDS011;5404;42.656;23.336;2023-07-13T01:29:50;15.88;;;6.10;;
10705;SDS011;5404;42.656;23.336;2023-07-13T01:32:19;12.18;;;6.18;;
10705;SDS011;5404;42.656;23.336;2023-07-13T01:34:49;11.65;;;5.97;;
10705;SDS011;5404;42.656;23.336;2023-07-13T01:37:16;11.27;;;6.03;;
10705;SDS011;5404;42.656;23.336;2023-07-13T01:39:42;13.15;;;6.05;;
10705;SDS011;5404;42.656;23.336;2023-07-13T01:42:08;12.93;;;6.07;;
10705;SDS011;5404;42.656;23.336;2023-07-13T01:44:34;12.93;;;6.35;;
10705;SDS011;5404;42.656;23.336;2023-07-13T01:47:00;21.80;;;6.38;;
10705;SDS011;5404;42.656;23.336;2023-07-13T01:49:27;11.95;;;5.85;;
10705;SDS011;5404;42.656;23.336;2023-07-13T01:51:52;12.27;;;6.28;;
10705;SDS011;5404;42.656;23.336;2023-07-13T01:54:18;18.33;;;6.63;;
10705;SDS011;5404;42.656;23.336;2023-07-13T01:56:43;15.65;;;6.55;;
10705;SDS011;5404;42.656;23.336;2023-07-13T01:59:09;15.27;;;6.72;;
10705;SDS011;5404;42.656;23.336;2023-07-13T02:01:35;13.68;;;6.40;;
10705;SDS011;5404;42.656;23.336;2023-07-13T02:04:00;11.43;;;6.68;;
10705;SDS011;5404;42.656;23.336;2023-07-13T02:06:26;16.20;;;6.50;;
10705;SDS011;5404;42.656;23.336;2023-07-13T02:08:51;11.70;;;6.47;;
10705;SDS011;5404;42.656;23.336;2023-07-13T02:11:17;11.43;;;6.80;;
10705;SDS011;5404;42.656;23.336;2023-07-13T02:13:42;10.82;;;6.15;;
10705;SDS011;5404;42.656;23.336;2023-07-13T02:16:08;16.85;;;6.55;;
10705;SDS011;5404;42.656;23.336;2023-07-13T02:18:34;14.13;;;6.47;;
10705;SDS011;5404;42.656;23.336;2023-07-13T02:21:00;15.10;;;6.90;;
10705;SDS011;5404;42.656;23.336;2023-07-13T02:23:25;15.70;;;6.70;;
10705;SDS011;5404;42.656;23.336;2023-07-13T02:26:01;13.10;;;5.95;;
10705;SDS011;5404;42.656;23.336;2023-07-13T02:28:28;15.25;;;6.43;;
10705;SDS011;5404;42.656;23.336;2023-07-13T02:30:54;15.70;;;6.75;;
10705;SDS011;5404;42.656;23.336;2023-07-13T02:33:19;12.68;;;6.63;;
10705;SDS011;5404;42.656;23.336;2023-07-13T02:35:45;11.85;;;5.68;;
10705;SDS011;5404;42.656;23.336;2023-07-13T02:38:10;17.10;;;6.75;;
10705;SDS011;5404;42.656;23.336;2023-07-13T02:40:36;15.50;;;6.53;;
10705;SDS011;5404;42.656;23.336;2023-07-13T02:43:02;19.27;;;6.80;;
10705;SDS011;5404;42.656;23.336;2023-07-13T02:45:28;15.52;;;7.57;;
10705;SDS011;5404;42.656;23.336;2023-07-13T02:47:55;14.63;;;6.85;;
10705;SDS011;5404;42.656;23.336;2023-07-13T02:50:20;17.45;;;6.78;;
10705;SDS011;5404;42.656;23.336;2023-07-13T02:52:46;27.10;;;7.03;;
10705;SDS011;5404;42.656;23.336;2023-07-13T02:55:11;13.93;;;7.07;;
10705;SDS011;5404;42.656;23.336;2023-07-13T02:57:37;12.43;;;6.55;;
10705;SDS011;5404;42.656;23.336;2023-07-13T03:00:03;14.25;;;6.85;;
10705;SDS011;5404;42.656;23.336;2023-07-13T03:02:33;20.63;;;7.18;;
10705;SDS011;5404;42.656;23.336;2023-07-13T03:04:59;17.85;;;6.93;;
10705;SDS011;5404;42.656;23.336;2023-07-13T03:07:24;16.90;;;6.65;;
10705;SDS011;5404;42.656;23.336;2023-07-13T03:09:56;13.77;;;6.88;;
10705;SDS011;5404;42.656;23.336;2023-07-13T03:12:23;12.88;;;6.63;;
10705;SDS011;5404;42.656;23.336;2023-07-13T03:14:49;14.82;;;6.93;;
10705;SDS011;5404;42.656;23.336;2023-07-13T03:17:14;14.73;;;7.22;;
10705;SDS011;5404;42.656;23.336;2023-07-13T03:19:40;16.75;;;6.88;;
10705;SDS011;5404;42.656;23.336;2023-07-13T03:22:05;20.75;;;6.97;;
10705;SDS011;5404;42.656;23.336;2023-07-13T03:24:32;17.10;;;7.20;;
10705;SDS011;5404;42.656;23.336;2023-07-13T03:26:59;11.48;;;6.75;;
10705;SDS011;5404;42.656;23.336;2023-07-13T03:29:26;12.82;;;7.28;;
10705;SDS011;5404;42.656;23.336;2023-07-13T03:31:52;13.82;;;7.00;;
10705;SDS011;5404;42.656;23.336;2023-07-13T03:34:17;12.52;;;7.47;;
10705;SDS011;5404;42.656;23.336;2023-07-13T03:36:43;12.30;;;7.47;;
10705;SDS011;5404;42.656;23.336;2023-07-13T03:39:08;12.55;;;6.90;;
10705;SDS011;5404;42.656;23.336;2023-07-13T03:41:34;23.05;;;7.68;;
10705;SDS011;5404;42.656;23.336;2023-07-13T03:44:00;20.98;;;7.97;;
10705;SDS011;5404;42.656;23.336;2023-07-13T03:46:25;13.52;;;7.40;;
10705;SDS011;5404;42.656;23.336;2023-07-13T03:48:51;23.88;;;7.97;;
10705;SDS011;5404;42.656;23.336;2023-07-13T03:51:16;19.00;;;7.22;;
10705;SDS011;5404;42.656;23.336;2023-07-13T03:53:43;13.38;;;7.63;;
10705;SDS011;5404;42.656;23.336;2023-07-13T03:56:10;11.85;;;7.53;;
10705;SDS011;5404;42.656;23.336;2023-07-13T03:58:37;15.23;;;6.97;;
10705;SDS011;5404;42.656;23.336;2023-07-13T04:01:05;14.23;;;7.28;;
10705;SDS011;5404;42.656;23.336;2023-07-13T04:03:32;14.27;;;7.70;;
10705;SDS011;5404;42.656;23.336;2023-07-13T04:05:59;25.85;;;7.63;;
10705;SDS011;5404;42.656;23.336;2023-07-13T04:08:27;14.73;;;6.93;;
10705;SDS011;5404;42.656;23.336;2023-07-13T04:10:54;16.15;;;7.75;;
10705;SDS011;5404;42.656;23.336;2023-07-13T04:13:20;21.40;;;7.95;;
10705;SDS011;5404;42.656;23.336;2023-07-13T04:15:45;28.50;;;8.80;;
10705;SDS011;5404;42.656;23.336;2023-07-13T04:18:11;23.90;;;8.43;;
10705;SDS011;5404;42.656;23.336;2023-07-13T04:20:36;22.38;;;8.95;;
10705;SDS011;5404;42.656;23.336;2023-07-13T04:23:02;21.27;;;7.95;;
10705;SDS011;5404;42.656;23.336;2023-07-13T04:25:27;22.85;;;8.45;;
10705;SDS011;5404;42.656;23.336;2023-07-13T04:27:53;16.88;;;7.93;;
10705;SDS011;5404;42.656;23.336;2023-07-13T04:30:19;19.42;;;8.73;;
10705;SDS011;5404;42.656;23.336;2023-07-13T04:32:45;12.70;;;8.55;;
10705;SDS011;5404;42.656;23.336;2023-07-13T04:35:11;21.95;;;9.60;;
10705;SDS011;5404;42.656;23.336;2023-07-13T04:37:36;14.85;;;9.45;;
10705;SDS011;5404;42.656;23.336;2023-07-13T04:40:02;15.07;;;9.73;;
10705;SDS011;5404;42.656;23.336;2023-07-13T04:42:28;15.77;;;9.40;;
10705;SDS011;5404;42.656;23.336;2023-07-13T04:44:54;15.45;;;9.88;;
10705;SDS011;5404;42.656;23.336;2023-07-13T04:47:20;23.40;;;9.73;;
10705;SDS011;5404;42.656;23.336;2023-07-13T04:49:46;18.52;;;9.93;;
10705;SDS011;5404;42.656;23.336;2023-07-13T04:52:11;14.75;;;9.05;;
10705;SDS011;5404;42.656;23.336;2023-07-13T04:54:37;19.77;;;9.23;;
10705;SDS011;5404;42.656;23.336;2023-07-13T04:57:04;27.58;;;9.98;;
10705;SDS011;5404;42.656;23.336;2023-07-13T04:59:33;16.85;;;9.27;;
10705;SDS011;5404;42.656;23.336;2023-07-13T05:01:59;19.83;;;9.05;;
10705;SDS011;5404;42.656;23.336;2023-07-13T05:04:26;24.88;;;10.85;;
10705;SDS011;5404;42.656;23.336;2023-07-13T05:06:52;16.80;;;10.93;;
10705;SDS011;5404;42.656;23.336;2023-07-13T05:09:18;25.48;;;11.23;;
10705;SDS011;5404;42.656;23.336;2023-07-13T05:11:44;30.88;;;10.30;;
10705;SDS011;5404;42.656;23.336;2023-07-13T05:14:09;16.70;;;11.10;;
10705;SDS011;5404;42.656;23.336;2023-07-13T05:16:35;25.17;;;12.48;;
10705;SDS011;5404;42.656;23.336;2023-07-13T05:19:01;19.30;;;11.55;;
10705;SDS011;5404;42.656;23.336;2023-07-13T05:21:28;20.27;;;11.15;;
10705;SDS011;5404;42.656;23.336;2023-07-13T05:23:54;21.98;;;11.25;;
10705;SDS011;5404;42.656;23.336;2023-07-13T05:26:19;17.77;;;11.10;;
10705;SDS011;5404;42.656;23.336;2023-07-13T05:28:46;22.52;;;12.82;;
10705;SDS011;5404;42.656;23.336;2023-07-13T05:31:11;23.95;;;13.07;;
10705;SDS011;5404;42.656;23.336;2023-07-13T05:33:37;20.23;;;12.27;;
10705;SDS011;5404;42.656;23.336;2023-07-13T05:36:03;23.58;;;12.95;;
10705;SDS011;5404;42.656;23.336;2023-07-13T05:38:29;25.67;;;13.15;;
10705;SDS011;5404;42.656;23.336;2023-07-13T05:40:55;28.88;;;13.18;;
10705;SDS011;5404;42.656;23.336;2023-07-13T05:43:22;26.83;;;13.35;;
10705;SDS011;5404;42.656;23.336;2023-07-13T05:45:48;27.02;;;12.65;;
10705;SDS011;5404;42.656;23.336;2023-07-13T05:48:14;23.38;;;13.20;;
10705;SDS011;5404;42.656;23.336;2023-07-13T05:50:40;18.92;;;11.75;;
10705;SDS011;5404;42.656;23.336;2023-07-13T05:53:06;23.23;;;13.50;;
10705;SDS011;5404;42.656;23.336;2023-07-13T05:55:32;22.73;;;11.52;;
10705;SDS011;5404;42.656;23.336;2023-07-13T05:57:58;27.90;;;13.07;;
10705;SDS011;5404;42.656;23.336;2023-07-13T06:00:25;37.60;;;13.75;;
10705;SDS011;5404;42.656;23.336;2023-07-13T06:02:50;44.05;;;13.38;;
10705;SDS011;5404;42.656;23.336;2023-07-13T06:05:16;28.85;;;12.07;;
10705;SDS011;5404;42.656;23.336;2023-07-13T06:07:42;40.58;;;13.93;;
10705;SDS011;5404;42.656;23.336;2023-07-13T06:10:07;27.67;;;12.45;;
10705;SDS011;5404;42.656;23.336;2023-07-13T06:12:33;22.77;;;12.57;;
10705;SDS011;5404;42.656;23.336;2023-07-13T06:14:59;23.30;;;11.27;;
10705;SDS011;5404;42.656;23.336;2023-07-13T06:17:25;20.17;;;11.20;;
10705;SDS011;5404;42.656;23.336;2023-07-13T06:19:51;23.73;;;11.52;;
10705;SDS011;5404;42.656;23.336;2023-07-13T06:22:16;29.70;;;12.02;;
10705;SDS011;5404;42.656;23.336;2023-07-13T06:24:42;18.05;;;10.70;;
10705;SDS011;5404;42.656;23.336;2023-07-13T06:27:07;23.20;;;11.40;;
10705;SDS011;5404;42.656;23.336;2023-07-13T06:29:33;19.45;;;10.63;;
10705;SDS011;5404;42.656;23.336;2023-07-13T06:31:59;19.23;;;10.40;;
10705;SDS011;5404;42.656;23.336;2023-07-13T06:34:24;27.83;;;10.60;;
10705;SDS011;5404;42.656;23.336;2023-07-13T06:36:49;19.83;;;10.73;;
10705;SDS011;5404;42.656;23.336;2023-07-13T06:39:15;20.05;;;9.68;;
10705;SDS011;5404;42.656;23.336;2023-07-13T06:41:41;24.67;;;9.70;;
10705;SDS011;5404;42.656;23.336;2023-07-13T06:44:07;20.70;;;10.13;;
10705;SDS011;5404;42.656;23.336;2023-07-13T06:46:32;18.55;;;9.07;;
10705;SDS011;5404;42.656;23.336;2023-07-13T06:48:58;16.27;;;8.80;;
10705;SDS011;5404;42.656;23.336;2023-07-13T06:51:23;16.52;;;8.07;;
10705;SDS011;5404;42.656;23.336;2023-07-13T06:53:49;21.83;;;8.90;;
10705;SDS011;5404;42.656;23.336;2023-07-13T06:56:15;23.63;;;8.25;;
10705;SDS011;5404;42.656;23.336;2023-07-13T06:58:40;16.10;;;8.38;;
10705;SDS011;5404;42.656;23.336;2023-07-13T07:01:06;20.55;;;8.02;;
10705;SDS011;5404;42.656;23.336;2023-07-13T07:03:32;16.40;;;8.18;;
10705;SDS011;5404;42.656;23.336;2023-07-13T07:08:48;18.80;;;8.15;;
10705;SDS011;5404;42.656;23.336;2023-07-13T07:11:17;15.20;;;7.88;;
10705;SDS011;5404;42.656;23.336;2023-07-13T07:13:44;19.33;;;8.23;;
10705;SDS011;5404;42.656;23.336;2023-07-13T07:16:09;19.80;;;8.50;;
10705;SDS011;5404;42.656;23.336;2023-07-13T07:18:35;19.58;;;7.65;;
10705;SDS011;5404;42.656;23.336;2023-07-13T07:21:01;14.38;;;7.32;;
10705;SDS011;5404;42.656;23.336;2023-07-13T07:23:26;14.23;;;8.00;;
10705;SDS011;5404;42.656;23.336;2023-07-13T07:25:52;14.40;;;8.32;;
10705;SDS011;5404;42.656;23.336;2023-07-13T07:28:18;16.63;;;8.18;;
10705;SDS011;5404;42.656;23.336;2023-07-13T07:30:44;20.45;;;8.52;;
10705;SDS011;5404;42.656;23.336;2023-07-13T07:33:10;16.48;;;8.23;;
10705;SDS011;5404;42.656;23.336;2023-07-13T07:35:36;22.42;;;8.98;;
10705;SDS011;5404;42.656;23.336;2023-07-13T07:38:01;15.63;;;8.73;;
10705;SDS011;5404;42.656;23.336;2023-07-13T07:40:27;16.65;;;8.18;;
10705;SDS011;5404;42.656;23.336;2023-07-13T07:42:52;22.42;;;8.25;;
10705;SDS011;5404;42.656;23.336;2023-07-13T07:45:18;18.55;;;7.85;;
10705;SDS011;5404;42.656;23.336;2023-07-13T07:47:44;12.45;;;7.78;;
10705;SDS011;5404;42.656;23.336;2023-07-13T07:50:10;27.38;;;9.55;;
10705;SDS011;5404;42.656;23.336;2023-07-13T07:52:35;14.23;;;8.15;;
10705;SDS011;5404;42.656;23.336;2023-07-13T07:55:01;22.23;;;8.40;;
10705;SDS011;5404;42.656;23.336;2023-07-13T07:57:26;16.33;;;8.65;;
10705;SDS011;5404;42.656;23.336;2023-07-13T07:59:52;17.10;;;8.90;;
10705;SDS011;5404;42.656;23.336;2023-07-13T08:02:17;30.80;;;8.77;;
10705;SDS011;5404;42.656;23.336;2023-07-13T08:04:44;19.17;;;8.70;;
10705;SDS011;5404;42.656;23.336;2023-07-13T08:07:10;14.80;;;8.50;;
10705;SDS011;5404;42.656;23.336;2023-07-13T08:09:35;19.70;;;8.20;;
10705;SDS011;5404;42.656;23.336;2023-07-13T08:12:01;22.88;;;8.98;;
10705;SDS011;5404;42.656;23.336;2023-07-13T08:14:26;21.55;;;8.63;;
10705;SDS011;5404;42.656;23.336;2023-07-13T08:16:51;19.48;;;8.40;;
10705;SDS011;5404;42.656;23.336;2023-07-13T08:19:18;25.17;;;9.60;;
10705;SDS011;5404;42.656;23.336;2023-07-13T08:21:44;26.17;;;8.40;;
10705;SDS011;5404;42.656;23.336;2023-07-13T08:24:09;35.65;;;9.55;;
10705;SDS011;5404;42.656;23.336;2023-07-13T08:26:35;23.05;;;8.77;;
10705;SDS011;5404;42.656;23.336;2023-07-13T08:29:01;24.05;;;9.40;;
10705;SDS011;5404;42.656;23.336;2023-07-13T08:31:27;23.60;;;8.73;;
10705;SDS011;5404;42.656;23.336;2023-07-13T08:33:52;21.77;;;7.65;;
10705;SDS011;5404;42.656;23.336;2023-07-13T08:36:18;15.80;;;7.45;;
10705;SDS011;5404;42.656;23.336;2023-07-13T08:38:43;22.85;;;8.10;;
10705;SDS011;5404;42.656;23.336;2023-07-13T08:41:10;17.58;;;7.75;;
10705;SDS011;5404;42.656;23.336;2023-07-13T08:43:38;14.63;;;7.53;;
10705;SDS011;5404;42.656;23.336;2023-07-13T08:53:46;24.33;;;8.10;;
10705;SDS011;5404;42.656;23.336;2023-07-13T08:56:22;14.90;;;7.15;;
10705;SDS011;5404;42.656;23.336;2023-07-13T08:58:53;16.60;;;8.25;;
10705;SDS011;5404;42.656;23.336;2023-07-13T09:09:01;15.18;;;7.70;;
10705;SDS011;5404;42.656;23.336;2023-07-13T09:11:44;14.88;;;7.88;;
10705;SDS011;5404;42.656;23.336;2023-07-13T09:14:53;16.53;;;8.00;;
10705;SDS011;5404;42.656;23.336;2023-07-13T09:17:25;21.35;;;8.35;;
10705;SDS011;5404;42.656;23.336;2023-07-13T09:19:58;17.98;;;7.68;;
10705;SDS011;5404;42.656;23.336;2023-07-13T09:22:29;14.00;;;8.07;;
10705;SDS011;5404;42.656;23.336;2023-07-13T09:25:04;19.65;;;8.48;;
10705;SDS011;5404;42.656;23.336;2023-07-13T09:27:39;22.98;;;8.73;;
10705;SDS011;5404;42.656;23.336;2023-07-13T09:32:47;25.92;;;7.68;;
10705;SDS011;5404;42.656;23.336;2023-07-13T09:35:16;14.85;;;7.57;;
10705;SDS011;5404;42.656;23.336;2023-07-13T09:37:46;18.08;;;8.32;;
10705;SDS011;5404;42.656;23.336;2023-07-13T09:40:18;20.27;;;7.88;;
10705;SDS011;5404;42.656;23.336;2023-07-13T09:42:51;18.15;;;8.48;;
10705;SDS011;5404;42.656;23.336;2023-07-13T09:48:04;22.60;;;7.70;;
10705;SDS011;5404;42.656;23.336;2023-07-13T09:50:36;16.13;;;7.68;;
10705;SDS011;5404;42.656;23.336;2023-07-13T09:53:02;19.27;;;8.43;;
10705;SDS011;5404;42.656;23.336;2023-07-13T09:55:36;24.00;;;9.13;;
10705;SDS011;5404;42.656;23.336;2023-07-13T09:58:05;20.80;;;8.32;;
10705;SDS011;5404;42.656;23.336;2023-07-13T10:00:37;22.08;;;8.45;;
10705;SDS011;5404;42.656;23.336;2023-07-13T10:05:51;15.23;;;8.13;;
10705;SDS011;5404;42.656;23.336;2023-07-13T10:08:21;20.80;;;7.57;;
10705;SDS011;5404;42.656;23.336;2023-07-13T10:11:08;16.35;;;8.00;;
10705;SDS011;5404;42.656;23.336;2023-07-13T10:13:37;16.20;;;7.65;;
10705;SDS011;5404;42.656;23.336;2023-07-13T10:16:07;12.65;;;7.35;;
10705;SDS011;5404;42.656;23.336;2023-07-13T10:21:58;19.88;;;7.40;;
10705;SDS011;5404;42.656;23.336;2023-07-13T10:24:35;13.77;;;6.68;;
10705;SDS011;5404;42.656;23.336;2023-07-13T10:30:28;9.43;;;6.03;;
10705;SDS011;5404;42.656;23.336;2023-07-13T10:32:54;14.05;;;6.80;;
10705;SDS011;5404;42.656;23.336;2023-07-13T10:35:23;9.68;;;5.13;;
10705;SDS011;5404;42.656;23.336;2023-07-13T10:40:32;16.98;;;4.85;;
10705;SDS011;5404;42.656;23.336;2023-07-13T10:43:05;12.05;;;5.00;;
10705;SDS011;5404;42.656;23.336;2023-07-13T10:45:38;13.23;;;4.93;;
10705;SDS011;5404;42.656;23.336;2023-07-13T10:48:05;11.35;;;4.53;;
10705;SDS011;5404;42.656;23.336;2023-07-13T10:50:35;8.65;;;4.28;;
10705;SDS011;5404;42.656;23.336;2023-07-13T10:53:22;16.10;;;5.40;;
10705;SDS011;5404;42.656;23.336;2023-07-13T10:56:03;11.63;;;5.03;;
10705;SDS011;5404;42.656;23.336;2023-07-13T11:03:49;7.87;;;4.53;;
10705;SDS011;5404;42.656;23.336;2023-07-13T11:13:57;21.17;;;5.50;;
10705;SDS011;5404;42.656;23.336;2023-07-13T11:16:35;20.58;;;5.35;;
10705;SDS011;5404;42.656;23.336;2023-07-13T11:21:27;8.27;;;4.47;;
10705;SDS011;5404;42.656;23.336;2023-07-13T11:31:43;17.10;;;4.88;;
10705;SDS011;5404;42.656;23.336;2023-07-13T11:34:21;14.15;;;4.93;;
10705;SDS011;5404;42.656;23.336;2023-07-13T11:37:12;16.63;;;5.28;;
10705;SDS011;5404;42.656;23.336;2023-07-13T11:39:42;18.25;;;5.80;;
10705;SDS011;5404;42.656;23.336;2023-07-13T11:44:41;13.73;;;4.95;;
10705;SDS011;5404;42.656;23.336;2023-07-13T11:47:19;9.32;;;5.75;;
10705;SDS011;5404;42.656;23.336;2023-07-13T11:49:51;16.08;;;5.50;;
10705;SDS011;5404;42.656;23.336;2023-07-13T11:52:30;12.02;;;5.47;;
10705;SDS011;5404;42.656;23.336;2023-07-13T11:55:00;15.18;;;5.63;;
10705;SDS011;5404;42.656;23.336;2023-07-13T11:57:33;20.45;;;5.38;;
10705;SDS011;5404;42.656;23.336;2023-07-13T12:00:15;20.33;;;5.32;;
10705;SDS011;5404;42.656;23.336;2023-07-13T12:02:44;16.98;;;5.43;;
10705;SDS011;5404;42.656;23.336;2023-07-13T12:05:15;10.68;;;5.40;;
10705;SDS011;5404;42.656;23.336;2023-07-13T12:07:51;16.83;;;5.07;;
10705;SDS011;5404;42.656;23.336;2023-07-13T12:10:35;12.30;;;5.18;;
10705;SDS011;5404;42.656;23.336;2023-07-13T12:13:01;14.77;;;5.43;;
10705;SDS011;5404;42.656;23.336;2023-07-13T12:18:28;13.15;;;4.55;;
10705;SDS011;5404;42.656;23.336;2023-07-13T12:20:57;11.80;;;5.05;;
10705;SDS011;5404;42.656;23.336;2023-07-13T12:26:04;11.55;;;5.10;;
10705;SDS011;5404;42.656;23.336;2023-07-13T12:28:35;13.20;;;5.30;;
10705;SDS011;5404;42.656;23.336;2023-07-13T12:31:07;17.27;;;5.50;;
10705;SDS011;5404;42.656;23.336;2023-07-13T12:33:56;14.50;;;5.63;;
10705;SDS011;5404;42.656;23.336;2023-07-13T12:36:23;14.23;;;6.18;;
10705;SDS011;5404;42.656;23.336;2023-07-13T12:38:49;21.90;;;6.32;;
10705;SDS011;5404;42.656;23.336;2023-07-13T12:41:16;14.02;;;6.53;;
10705;SDS011;5404;42.656;23.336;2023-07-13T12:43:42;14.70;;;6.20;;
10705;SDS011;5404;42.656;23.336;2023-07-13T12:46:17;13.13;;;6.03;;
10705;SDS011;5404;42.656;23.336;2023-07-13T12:48:52;19.05;;;6.57;;
10705;SDS011;5404;42.656;23.336;2023-07-13T12:51:21;16.08;;;7.07;;
10705;SDS011;5404;42.656;23.336;2023-07-13T12:53:50;17.40;;;6.13;;
10705;SDS011;5404;42.656;23.336;2023-07-13T12:56:23;13.15;;;6.70;;
10705;SDS011;5404;42.656;23.336;2023-07-13T12:58:56;15.70;;;6.90;;
10705;SDS011;5404;42.656;23.336;2023-07-13T13:01:29;19.27;;;7.13;;
10705;SDS011;5404;42.656;23.336;2023-07-13T13:04:00;26.27;;;7.47;;
10705;SDS011;5404;42.656;23.336;2023-07-13T13:06:31;19.52;;;8.55;;
10705;SDS011;5404;42.656;23.336;2023-07-13T13:08:58;17.45;;;7.22;;
10705;SDS011;5404;42.656;23.336;2023-07-13T13:11:25;18.67;;;7.47;;
10705;SDS011;5404;42.656;23.336;2023-07-13T13:13:52;14.30;;;6.60;;
10705;SDS011;5404;42.656;23.336;2023-07-13T13:16:23;13.40;;;6.60;;
10705;SDS011;5404;42.656;23.336;2023-07-13T13:19:19;12.38;;;6.75;;
10705;SDS011;5404;42.656;23.336;2023-07-13T13:21:50;13.88;;;6.63;;
10705;SDS011;5404;42.656;23.336;2023-07-13T13:24:18;13.73;;;6.28;;
10705;SDS011;5404;42.656;23.336;2023-07-13T13:26:46;16.52;;;6.65;;
10705;SDS011;5404;42.656;23.336;2023-07-13T13:29:14;14.63;;;6.53;;
10705;SDS011;5404;42.656;23.336;2023-07-13T13:31:43;14.63;;;6.43;;
10705;SDS011;5404;42.656;23.336;2023-07-13T13:34:12;22.88;;;6.65;;
10705;SDS011;5404;42.656;23.336;2023-07-13T13:36:39;18.13;;;6.55;;
10705;SDS011;5404;42.656;23.336;2023-07-13T13:39:25;20.75;;;7.03;;
10705;SDS011;5404;42.656;23.336;2023-07-13T13:41:57;14.38;;;6.60;;
10705;SDS011;5404;42.656;23.336;2023-07-13T13:44:23;27.08;;;6.80;;
10705;SDS011;5404;42.656;23.336;2023-07-13T13:46:50;15.05;;;6.20;;
10705;SDS011;5404;42.656;23.336;2023-07-13T13:49:19;17.30;;;7.03;;
10705;SDS011;5404;42.656;23.336;2023-07-13T13:51:47;19.83;;;7.10;;
10705;SDS011;5404;42.656;23.336;2023-07-13T13:54:14;15.68;;;6.78;;
10705;SDS011;5404;42.656;23.336;2023-07-13T13:56:45;24.45;;;8.20;;
10705;SDS011;5404;42.656;23.336;2023-07-13T13:59:12;15.23;;;5.82;;
10705;SDS011;5404;42.656;23.336;2023-07-13T14:01:38;15.05;;;5.90;;
10705;SDS011;5404;42.656;23.336;2023-07-13T14:04:05;19.73;;;6.78;;
10705;SDS011;5404;42.656;23.336;2023-07-13T14:06:32;16.20;;;6.78;;
10705;SDS011;5404;42.656;23.336;2023-07-13T14:09:01;17.42;;;6.78;;
10705;SDS011;5404;42.656;23.336;2023-07-13T14:11:27;21.70;;;7.50;;
10705;SDS011;5404;42.656;23.336;2023-07-13T14:16:26;19.45;;;6.72;;
10705;SDS011;5404;42.656;23.336;2023-07-13T14:18:54;16.88;;;6.50;;
10705;SDS011;5404;42.656;23.336;2023-07-13T14:21:23;26.60;;;7.47;;
10705;SDS011;5404;42.656;23.336;2023-07-13T14:23:49;16.30;;;5.05;;
10705;SDS011;5404;42.656;23.336;2023-07-13T14:26:19;16.85;;;5.50;;
10705;SDS011;5404;42.656;23.336;2023-07-13T14:28:48;23.98;;;5.78;;
10705;SDS011;5404;42.656;23.336;2023-07-13T14:31:16;14.82;;;5.05;;
10705;SDS011;5404;42.656;23.336;2023-07-13T14:33:42;19.25;;;5.68;;
10705;SDS011;5404;42.656;23.336;2023-07-13T14:38:59;17.13;;;5.93;;
10705;SDS011;5404;42.656;23.336;2023-07-13T14:41:34;21.45;;;5.85;;
10705;SDS011;5404;42.656;23.336;2023-07-13T14:43:59;19.50;;;5.55;;
10705;SDS011;5404;42.656;23.336;2023-07-13T14:46:29;26.17;;;5.70;;
10705;SDS011;5404;42.656;23.336;2023-07-13T14:49:00;15.95;;;4.82;;
10705;SDS011;5404;42.656;23.336;2023-07-13T14:51:29;21.83;;;5.82;;
10705;SDS011;5404;42.656;23.336;2023-07-13T14:53:55;18.50;;;6.30;;
10705;SDS011;5404;42.656;23.336;2023-07-13T14:56:21;19.20;;;5.60;;
10705;SDS011;5404;42.656;23.336;2023-07-13T14:58:46;16.70;;;5.28;;
10705;SDS011;5404;42.656;23.336;2023-07-13T15:01:12;17.75;;;4.93;;
10705;SDS011;5404;42.656;23.336;2023-07-13T15:03:41;14.50;;;5.35;;
10705;SDS011;5404;42.656;23.336;2023-07-13T15:06:10;18.77;;;5.15;;
10705;SDS011;5404;42.656;23.336;2023-07-13T15:08:37;20.38;;;5.40;;
10705;SDS011;5404;42.656;23.336;2023-07-13T15:11:03;22.77;;;5.97;;
10705;SDS011;5404;42.656;23.336;2023-07-13T15:13:30;12.75;;;5.25;;
10705;SDS011;5404;42.656;23.336;2023-07-13T15:15:55;10.93;;;4.82;;
10705;SDS011;5404;42.656;23.336;2023-07-13T15:18:22;18.73;;;5.05;;
10705;SDS011;5404;42.656;23.336;2023-07-13T15:20:50;18.25;;;5.10;;
10705;SDS011;5404;42.656;23.336;2023-07-13T15:23:20;20.20;;;5.43;;
10705;SDS011;5404;42.656;23.336;2023-07-13T15:25:47;14.48;;;5.05;;
10705;SDS011;5404;42.656;23.336;2023-07-13T15:28:13;19.92;;;5.85;;
10705;SDS011;5404;42.656;23.336;2023-07-13T15:30:49;13.35;;;5.30;;
10705;SDS011;5404;42.656;23.336;2023-07-13T15:35:49;14.57;;;5.40;;
10705;SDS011;5404;42.656;23.336;2023-07-13T15:38:20;15.55;;;5.53;;
10705;SDS011;5404;42.656;23.336;2023-07-13T15:40:48;10.93;;;5.80;;
10705;SDS011;5404;42.656;23.336;2023-07-13T15:43:15;22.92;;;5.80;;
10705;SDS011;5404;42.656;23.336;2023-07-13T15:45:42;16.83;;;4.90;;
10705;SDS011;5404;42.656;23.336;2023-07-13T15:51:03;12.48;;;5.10;;
10705;SDS011;5404;42.656;23.336;2023-07-13T15:53:35;19.58;;;5.88;;
10705;SDS011;5404;42.656;23.336;2023-07-13T15:56:23;17.33;;;5.10;;
10705;SDS011;5404;42.656;23.336;2023-07-13T15:58:51;15.43;;;4.78;;